< < Back
Terminal Aerodrome Forecast


Current Version              Previous Versions:   1  2  3  4  5  6  7  8  9  

Terminal Aerodrome Forecast

475
FTUS44 KHUN 262149 AAA
TAFHSV
TAF AMD
KHSV 262149Z 2622/2718 VRB04KT P6SM VCTS SCT050CB BKN100
      TEMPO 2623/2624 VRB15KT 3SM TSRA BKN030CB
     FM270200 VRB03KT P6SM SCT050 SCT090
     FM270800 VRB02KT 4SM BR FEW250
     FM271300 23004KT P6SM SCT035 BKN250 PROB30 2716/2718 5SM TSRA
      BKN040CB=

Latest METAR

038
SAUS80 KWBC 270700 RRA
MTRHSV
METAR KHSV 270653Z 13004KT 10SM CLR 24/21 A3010 RMK AO2 SLP182
T02390211


USA.gov is the U.S. government's official web portal to all federal, state and local government web resources and services.